TimeCST,TemperatureF,Dew PointF,Humidity,Sea Level PressureIn,VisibilityMPH,Wind Direction,Wind SpeedMPH,Gust SpeedMPH,PrecipitationIn,Events,Conditions,WindDirDegrees,DateUTC
12:15 AM,39.2,38.1,96,29.78,7.0,West,9.2,-,N/A,,Overcast,280,2012-12-18 06:15:00
12:35 AM,39.2,37.9,95,29.79,5.0,West,9.2,-,N/A,,Overcast,270,2012-12-18 06:35:00
12:55 AM,39.2,37.8,95,29.80,5.0,West,9.2,-,N/A,,Overcast,280,2012-12-18 06:55:00
1:15 AM,38.8,37.8,96,29.81,5.0,West,12.7,16.1,N/A,,Overcast,270,2012-12-18 07:15:00
1:35 AM,38.8,37.9,97,29.81,4.0,West,10.4,-,N/A,,Overcast,260,2012-12-18 07:35:00
1:55 AM,38.7,37.9,97,29.82,3.0,West,9.2,-,N/A,,Overcast,270,2012-12-18 07:55:00
2:15 AM,38.7,38.1,98,29.82,3.0,West,4.6,-,N/A,,Overcast,260,2012-12-18 08:15:00
2:35 AM,38.7,37.8,97,29.83,4.0,WSW,9.2,-,N/A,,Overcast,250,2012-12-18 08:35:00
2:55 AM,38.5,37.4,96,29.83,5.0,West,8.1,-,N/A,,Overcast,260,2012-12-18 08:55:00
3:15 AM,38.7,36.7,93,29.83,7.0,West,11.5,-,N/A,,Overcast,260,2012-12-18 09:15:00
3:35 AM,38.7,36.5,92,29.84,7.0,WSW,8.1,-,N/A,,Overcast,250,2012-12-18 09:35:00
3:55 AM,38.3,35.6,90,29.83,10.0,West,8.1,-,N/A,,Overcast,280,2012-12-18 09:55:00
4:15 AM,38.3,35.4,89,29.85,10.0,West,11.5,-,N/A,,Overcast,260,2012-12-18 10:15:00
4:35 AM,38.3,36.0,91,29.85,7.0,West,8.1,-,N/A,,Overcast,270,2012-12-18 10:35:00
4:55 AM,38.3,35.6,90,29.84,7.0,West,6.9,10.4,N/A,,Overcast,270,2012-12-18 10:55:00
5:15 AM,38.3,35.6,90,29.85,7.0,West,5.8,-,N/A,,Overcast,270,2012-12-18 11:15:00
5:35 AM,38.3,35.8,91,29.85,7.0,WSW,5.8,-,N/A,,Overcast,240,2012-12-18 11:35:00
5:55 AM,38.3,35.8,91,29.86,7.0,WSW,4.6,-,N/A,,Overcast,240,2012-12-18 11:55:00
6:15 AM,38.3,36.1,92,29.86,7.0,SSW,5.8,-,N/A,,Overcast,200,2012-12-18 12:15:00
6:35 AM,37.9,35.6,91,29.86,7.0,SSW,5.8,-,N/A,,Overcast,200,2012-12-18 12:35:00
6:55 AM,37.6,34.0,87,29.87,7.0,South,6.9,-,N/A,,Overcast,190,2012-12-18 12:55:00
7:15 AM,37.6,33.8,86,29.87,7.0,Calm,Calm,-,N/A,,Overcast,0,2012-12-18 13:15:00
7:35 AM,37.8,34.5,88,29.87,5.0,Calm,Calm,-,N/A,,Overcast,0,2012-12-18 13:35:00
7:55 AM,38.3,34.7,87,29.87,7.0,South,4.6,-,N/A,,Overcast,170,2012-12-18 13:55:00
8:15 AM,38.3,34.7,87,29.87,7.0,South,6.9,-,N/A,,Overcast,180,2012-12-18 14:15:00
8:35 AM,38.7,34.9,86,29.87,7.0,SSE,6.9,-,N/A,,Overcast,160,2012-12-18 14:35:00
8:55 AM,39.0,34.7,84,29.88,7.0,South,8.1,-,N/A,,Overcast,170,2012-12-18 14:55:00
9:15 AM,39.2,35.2,86,29.88,7.0,South,8.1,-,N/A,,Overcast,170,2012-12-18 15:15:00
9:35 AM,39.9,36.1,86,29.89,7.0,South,11.5,-,N/A,,Overcast,180,2012-12-18 15:35:00
9:55 AM,40.3,36.1,85,29.89,7.0,SSE,12.7,-,N/A,,Overcast,160,2012-12-18 15:55:00
10:15 AM,41.0,37.0,86,29.88,7.0,South,10.4,-,N/A,,Overcast,170,2012-12-18 16:15:00
10:35 AM,41.2,37.2,86,29.87,7.0,SSE,13.8,18.4,N/A,,Overcast,160,2012-12-18 16:35:00
10:55 AM,41.7,37.2,84,29.86,7.0,SSE,12.7,-,N/A,,Overcast,150,2012-12-18 16:55:00
11:15 AM,42.8,37.8,82,29.86,7.0,SSE,13.8,-,N/A,,Overcast,150,2012-12-18 17:15:00
11:35 AM,42.8,37.6,82,29.85,7.0,SSE,13.8,20.7,N/A,,Mostly Cloudy,150,2012-12-18 17:35:00
11:55 AM,43.7,38.1,81,29.83,7.0,SSE,16.1,-,N/A,,Mostly Cloudy,160,2012-12-18 17:55:00
12:15 PM,45.0,39.0,80,29.81,7.0,SE,16.1,19.6,N/A,,Scattered Clouds,140,2012-12-18 18:15:00
12:35 PM,45.7,38.8,77,29.81,10.0,SSE,18.4,23.0,N/A,,Clear,150,2012-12-18 18:35:00
12:55 PM,46.9,38.7,73,29.79,10.0,SSE,16.1,-,N/A,,Clear,150,2012-12-18 18:55:00
1:15 PM,48.6,39.2,70,29.77,10.0,SSE,17.3,21.9,N/A,,Clear,150,2012-12-18 19:15:00
1:55 PM,50.2,38.7,65,29.74,10.0,SSE,18.4,24.2,N/A,,Clear,150,2012-12-18 19:55:00
2:15 PM,51.4,38.1,60,29.73,10.0,SSE,19.6,25.3,N/A,,Clear,160,2012-12-18 20:15:00
2:35 PM,51.8,37.4,58,29.73,10.0,SSE,19.6,25.3,N/A,,Clear,150,2012-12-18 20:35:00
2:55 PM,52.0,37.8,58,29.71,10.0,SSE,20.7,26.5,N/A,,Clear,160,2012-12-18 20:55:00
3:15 PM,51.8,37.6,58,29.70,10.0,SSE,16.1,24.2,N/A,,Clear,160,2012-12-18 21:15:00
3:55 PM,51.3,37.6,60,29.69,10.0,South,15.0,19.6,N/A,,Clear,170,2012-12-18 21:55:00
4:15 PM,51.1,37.0,59,29.70,10.0,South,13.8,-,N/A,,Clear,190,2012-12-18 22:15:00
4:35 PM,50.9,36.9,59,29.70,10.0,South,15.0,21.9,N/A,,Clear,180,2012-12-18 22:35:00
4:55 PM,50.2,37.0,61,29.71,10.0,South,11.5,-,N/A,,Clear,190,2012-12-18 22:55:00
5:15 PM,49.1,37.0,63,29.72,10.0,SSW,10.4,-,N/A,,Clear,200,2012-12-18 23:15:00
5:35 PM,47.8,37.4,67,29.73,10.0,SSW,10.4,-,N/A,,Clear,200,2012-12-18 23:35:00
5:55 PM,49.3,36.9,62,29.73,10.0,SSW,12.7,-,N/A,,Clear,200,2012-12-18 23:55:00
6:15 PM,49.3,37.0,63,29.73,10.0,SSW,15.0,-,N/A,,Clear,200,2012-12-19 00:15:00
6:35 PM,49.3,37.4,64,29.73,10.0,SSW,17.3,23.0,N/A,,Clear,200,2012-12-19 00:35:00
6:55 PM,49.5,37.9,65,29.74,10.0,SSW,16.1,-,N/A,,Clear,200,2012-12-19 00:55:00
7:15 PM,49.6,38.3,65,29.75,10.0,SSW,17.3,21.9,N/A,,Clear,210,2012-12-19 01:15:00
7:35 PM,49.6,38.3,65,29.76,10.0,SSW,18.4,-,N/A,,Clear,210,2012-12-19 01:35:00
7:55 PM,49.5,38.7,66,29.76,10.0,SSW,18.4,23.0,N/A,,Clear,210,2012-12-19 01:55:00
8:15 PM,49.5,39.2,68,29.78,10.0,SW,16.1,23.0,N/A,,Clear,220,2012-12-19 02:15:00
8:35 PM,49.3,39.6,69,29.79,10.0,SW,15.0,21.9,N/A,,Clear,220,2012-12-19 02:35:00
8:55 PM,49.6,40.1,70,29.80,10.0,SW,17.3,25.3,N/A,,Clear,220,2012-12-19 02:55:00
9:15 PM,48.6,40.3,73,29.80,10.0,SW,12.7,-,N/A,,Clear,220,2012-12-19 03:15:00
9:35 PM,48.2,40.3,74,29.81,10.0,SW,12.7,-,N/A,,Clear,220,2012-12-19 03:35:00
9:55 PM,47.5,40.1,76,29.83,10.0,WSW,15.0,-,N/A,,Clear,250,2012-12-19 03:55:00
10:15 PM,46.4,37.8,72,29.86,10.0,WNW,13.8,-,N/A,,Clear,300,2012-12-19 04:15:00
10:35 PM,43.0,35.1,74,29.88,10.0,NW,9.2,-,N/A,,Clear,320,2012-12-19 04:35:00
10:55 PM,41.4,32.5,71,29.89,10.0,West,11.5,18.4,N/A,,Clear,280,2012-12-19 04:55:00
11:15 PM,40.1,32.5,74,29.91,10.0,WNW,9.2,-,N/A,,Clear,290,2012-12-19 05:15:00
11:35 PM,39.2,32.2,76,29.92,10.0,WNW,8.1,-,N/A,,Clear,290,2012-12-19 05:35:00
11:55 PM,38.5,32.0,78,29.92,10.0,WNW,5.8,-,N/A,,Clear,300,2012-12-19 05:55:00